Aikoumaru No.8 — JD3288 — position and weather

sailwx.info

Track history (hours):
 
Tides and Currents Weather Stations Pressure Air Temp Water Temp Dewpoint Dewpoint Depression Visibility Wind Speed Wind Dir Waves Ship Positions

Aikoumaru No.8

Last reported at 2014-Sep-19 01:32 UTC. Time now 2014-Sep-22 20:13 UTC.
Position N 35°57' E 140°42'.

Length 74 m; draft 4.5 m.

Type: Cargo ship. MMSI: 431003153.

Date/timePositionNaut miles runAvg speedWind from/ knotsBaromVisibWave heightAir tempDewpointWater temp
2014-Sep-19 01:32N 35°57' E 140°42'0 0.0
2014-Sep-19 00:11N 35°57' E 140°42'0 0.1
2014-Sep-18 23:33N 35°57' E 140°42'2 1.8
2014-Sep-18 22:33N 35°58' E 140°44'1212.2
2014-Sep-18 21:32N 35°48' E 140°53'1110.8
2014-Sep-18 20:33N 35°37' E 140°52'1212.0
2014-Sep-18 19:33N 35°28' E 140°43'1512.1
2014-Sep-18 18:21N 35°17' E 140°31'1312.1
2014-Sep-18 17:16N 35°07' E 140°21'912.9
2014-Sep-18 16:33N 35°01' E 140°12'1312.9
2014-Sep-18 15:31N 34°54' E 139°58'1110.8
2014-Sep-18 14:31N 34°55' E 139°45'1010.8
2014-Sep-18 13:33N 35°06' E 139°44'1212.5
2014-Sep-18 12:33N 35°18' E 139°44'1111.2
2014-Sep-18 11:33N 35°28' E 139°50'1212.5
2014-Sep-18 10:34N 35°39' E 139°58'3 2.7
2014-Sep-18 09:33N 35°41' E 139°57'0 0.1
2014-Sep-18 08:33N 35°41' E 139°57'9 8.9
2014-Sep-18 07:34N 35°33' E 139°53'1111.2
2014-Sep-18 06:33N 35°27' E 139°42'1 1.1
2014-Sep-18 05:31N 35°27' E 139°41'0 0.0
2014-Sep-18 04:28N 35°27' E 139°41'0 0.0
2014-Sep-18 03:31N 35°27' E 139°41'0 0.0
2014-Sep-18 02:31N 35°27' E 139°41'0 0.0
2014-Sep-18 01:32N 35°27' E 139°41'1 1.2
2014-Sep-18 00:32N 35°27' E 139°42'0 0.0
2014-Sep-17 23:32N 35°27' E 139°42'0 0.0
2014-Sep-17 22:32N 35°27' E 139°42'0 0.0
2014-Sep-17 21:32N 35°27' E 139°42'0 0.1
2014-Sep-17 20:32N 35°27' E 139°42'0 0.0
2014-Sep-17 19:32N 35°27' E 139°42'0 0.0
2014-Sep-17 18:32N 35°27' E 139°42'0 0.0
2014-Sep-17 17:32N 35°27' E 139°42'0 0.0
2014-Sep-17 16:32N 35°27' E 139°42'0 0.0
2014-Sep-17 15:32N 35°27' E 139°42'5 4.7
2014-Sep-17 14:33N 35°22' E 139°43'1110.7
2014-Sep-17 13:33N 35°12' E 139°47'62 3.8
2014-Sep-16 21:22N 35°03' E 138°32'194 5.9
2014-Sep-15 12:27N 34°06' E 134°46'  
Track history (hours):
 
Tides and Currents Weather Stations Pressure Air Temp Water Temp Dewpoint Dewpoint Depression Visibility Wind Speed Wind Dir Waves Ship Positions

Aikoumaru No.8

Last reported at 2014-Sep-19 01:32 UTC. Time now 2014-Sep-22 20:13 UTC.
Position N 35°57' E 140°42'.

Length 74 m; draft 4.5 m.

Type: Cargo ship. MMSI: 431003153.

Date/timePositionNaut miles runAvg speedWind from/ knotsBaromVisibWave heightAir tempDewpointWater temp
2014-Sep-19 01:32N 35°57' E 140°42'0 0.0
2014-Sep-19 00:11N 35°57' E 140°42'0 0.1
2014-Sep-18 23:33N 35°57' E 140°42'2 1.8
2014-Sep-18 22:33N 35°58' E 140°44'1212.2
2014-Sep-18 21:32N 35°48' E 140°53'1110.8
2014-Sep-18 20:33N 35°37' E 140°52'1212.0
2014-Sep-18 19:33N 35°28' E 140°43'1512.1
2014-Sep-18 18:21N 35°17' E 140°31'1312.1
2014-Sep-18 17:16N 35°07' E 140°21'912.9
2014-Sep-18 16:33N 35°01' E 140°12'1312.9
2014-Sep-18 15:31N 34°54' E 139°58'1110.8
2014-Sep-18 14:31N 34°55' E 139°45'1010.8
2014-Sep-18 13:33N 35°06' E 139°44'1212.5
2014-Sep-18 12:33N 35°18' E 139°44'1111.2
2014-Sep-18 11:33N 35°28' E 139°50'1212.5
2014-Sep-18 10:34N 35°39' E 139°58'3 2.7
2014-Sep-18 09:33N 35°41' E 139°57'0 0.1
2014-Sep-18 08:33N 35°41' E 139°57'9 8.9
2014-Sep-18 07:34N 35°33' E 139°53'1111.2
2014-Sep-18 06:33N 35°27' E 139°42'1 1.1
2014-Sep-18 05:31N 35°27' E 139°41'0 0.0
2014-Sep-18 04:28N 35°27' E 139°41'0 0.0
2014-Sep-18 03:31N 35°27' E 139°41'0 0.0
2014-Sep-18 02:31N 35°27' E 139°41'0 0.0
2014-Sep-18 01:32N 35°27' E 139°41'1 1.2
2014-Sep-18 00:32N 35°27' E 139°42'0 0.0
2014-Sep-17 23:32N 35°27' E 139°42'0 0.0
2014-Sep-17 22:32N 35°27' E 139°42'0 0.0
2014-Sep-17 21:32N 35°27' E 139°42'0 0.1
2014-Sep-17 20:32N 35°27' E 139°42'0 0.0
2014-Sep-17 19:32N 35°27' E 139°42'0 0.0
2014-Sep-17 18:32N 35°27' E 139°42'0 0.0
2014-Sep-17 17:32N 35°27' E 139°42'0 0.0
2014-Sep-17 16:32N 35°27' E 139°42'0 0.0
2014-Sep-17 15:32N 35°27' E 139°42'5 4.7
2014-Sep-17 14:33N 35°22' E 139°43'1110.7
2014-Sep-17 13:33N 35°12' E 139°47'62 3.8
2014-Sep-16 21:22N 35°03' E 138°32'194 5.9
2014-Sep-15 12:27N 34°06' E 134°46'  

Dump ship's entire track history